createdAt,value
2019-01-14T00:01:48.119Z,6.90
2019-01-14T00:04:18.201Z,7.00
2019-01-14T00:06:48.534Z,7.00
2019-01-14T00:09:23.372Z,6.90
2019-01-14T00:11:50.644Z,6.90
2019-01-14T00:14:20.582Z,6.90
2019-01-14T00:16:50.690Z,6.90
2019-01-14T00:19:20.585Z,7.00
2019-01-14T00:21:50.783Z,6.60
2019-01-14T00:24:20.473Z,6.10
2019-01-14T00:26:50.481Z,5.70
2019-01-14T00:29:20.240Z,5.60
2019-01-14T00:31:50.001Z,5.60
2019-01-14T00:34:20.002Z,5.60
2019-01-14T00:36:49.906Z,5.60
2019-01-14T00:39:19.731Z,5.60
2019-01-14T00:41:49.774Z,5.70
2019-01-14T00:44:19.454Z,5.70
2019-01-14T00:46:49.234Z,5.60
2019-01-14T00:49:19.282Z,5.60
2019-01-14T00:51:49.545Z,5.60
2019-01-14T00:54:19.406Z,5.60
2019-01-14T00:56:49.320Z,5.70
2019-01-14T00:59:19.338Z,5.70
2019-01-14T01:01:49.028Z,5.70
2019-01-14T01:04:18.871Z,5.70
2019-01-14T01:06:48.582Z,5.60
2019-01-14T01:09:18.314Z,5.60
2019-01-14T01:11:56.435Z,5.60
2019-01-14T01:14:26.552Z,5.70
2019-01-14T01:16:59.217Z,5.70
2019-01-14T01:19:29.032Z,5.70
2019-01-14T01:21:58.900Z,5.70
2019-01-14T01:24:28.733Z,5.70
2019-01-14T01:26:58.413Z,5.70
2019-01-14T01:29:28.615Z,5.70
2019-01-14T01:31:58.671Z,5.70
2019-01-14T01:34:28.462Z,5.70
2019-01-14T01:36:58.746Z,5.70
2019-01-14T01:39:28.610Z,5.70
2019-01-14T01:41:58.573Z,5.70
2019-01-14T01:44:29.209Z,5.70
2019-01-14T01:47:01.071Z,5.70
2019-01-14T01:49:30.981Z,5.70
2019-01-14T01:52:01.390Z,5.70
2019-01-14T01:54:31.243Z,5.70
2019-01-14T01:57:00.934Z,5.70
2019-01-14T01:59:30.799Z,5.70
2019-01-14T02:02:00.781Z,5.70
2019-01-14T02:04:32.389Z,5.70
2019-01-14T02:07:02.383Z,5.70
2019-01-14T02:09:35.658Z,5.60
2019-01-14T02:12:06.036Z,5.60
2019-01-14T02:14:35.995Z,5.60
2019-01-14T02:17:05.803Z,5.60
2019-01-14T02:19:39.166Z,5.60
2019-01-14T02:22:09.299Z,5.60
2019-01-14T02:24:42.998Z,5.70
2019-01-14T02:27:13.580Z,5.70
2019-01-14T02:29:44.873Z,5.70
2019-01-14T02:32:16.351Z,5.70
2019-01-14T02:34:46.723Z,5.70
2019-01-14T02:37:16.427Z,5.70
2019-01-14T02:39:46.279Z,5.70
2019-01-14T02:42:18.387Z,5.70
2019-01-14T02:44:48.398Z,5.70
2019-01-14T02:47:18.414Z,5.70
2019-01-14T02:49:49.853Z,5.70
2019-01-14T02:52:19.658Z,5.60
2019-01-14T02:54:49.467Z,5.60
2019-01-14T02:57:19.997Z,5.50
2019-01-14T02:59:49.999Z,5.50
2019-01-14T03:02:19.871Z,5.40
2019-01-14T03:04:50.379Z,5.40
2019-01-14T03:07:20.452Z,5.50
2019-01-14T03:09:50.331Z,5.50
2019-01-14T03:12:20.353Z,5.50
2019-01-14T03:14:50.138Z,5.50
2019-01-14T03:17:20.150Z,5.50
2019-01-14T03:19:49.854Z,5.50
2019-01-14T03:22:19.689Z,5.50
2019-01-14T03:24:49.689Z,5.50
2019-01-14T03:27:19.468Z,5.50
2019-01-14T03:29:49.342Z,5.50
2019-01-14T03:32:19.622Z,5.50
2019-01-14T03:34:49.715Z,5.50
2019-01-14T03:37:19.489Z,5.50
2019-01-14T03:39:49.737Z,5.60
2019-01-14T03:42:19.762Z,5.50
2019-01-14T03:44:49.855Z,5.60
2019-01-14T03:47:19.799Z,5.50
2019-01-14T03:49:49.703Z,5.60
2019-01-14T03:52:19.818Z,5.60
2019-01-14T03:54:50.028Z,5.60
2019-01-14T03:57:19.901Z,5.60
2019-01-14T03:59:49.880Z,5.50
2019-01-14T04:02:22.008Z,5.60
2019-01-14T04:04:51.737Z,5.60
2019-01-14T04:07:21.990Z,5.50
2019-01-14T04:09:51.806Z,5.60
2019-01-14T04:12:22.015Z,5.60
2019-01-14T04:14:51.789Z,5.50
2019-01-14T04:17:22.165Z,5.50
2019-01-14T04:19:52.308Z,5.50
2019-01-14T04:22:22.205Z,5.60
2019-01-14T04:24:51.941Z,5.50
2019-01-14T04:27:22.275Z,5.50
2019-01-14T04:29:52.377Z,5.40
2019-01-14T04:32:22.199Z,5.50
2019-01-14T04:34:51.981Z,5.50
2019-01-14T04:37:22.095Z,5.40
2019-01-14T04:39:52.589Z,5.50
2019-01-14T04:42:22.755Z,5.40
2019-01-14T04:44:52.703Z,5.40
2019-01-14T04:47:24.918Z,5.40
2019-01-14T04:49:54.887Z,5.30
2019-01-14T04:52:25.368Z,5.30
2019-01-14T04:54:55.099Z,5.40
2019-01-14T04:57:25.154Z,5.40
2019-01-14T04:59:55.115Z,5.40
2019-01-14T05:02:24.959Z,5.40
2019-01-14T05:04:55.128Z,5.50
2019-01-14T05:07:29.465Z,5.40
2019-01-14T05:09:56.901Z,5.40
2019-01-14T05:12:26.972Z,5.30
2019-01-14T05:14:56.812Z,5.30
2019-01-14T05:17:26.822Z,5.30
2019-01-14T05:19:56.666Z,5.30
2019-01-14T05:22:26.503Z,5.20
2019-01-14T05:24:56.440Z,5.30
2019-01-14T05:27:26.251Z,5.40
2019-01-14T05:29:56.048Z,5.30
2019-01-14T05:32:25.742Z,5.30
2019-01-14T05:34:55.461Z,5.30
2019-01-14T05:37:25.459Z,5.40
2019-01-14T05:39:55.414Z,5.40
2019-01-14T05:42:25.082Z,5.40
2019-01-14T05:44:55.103Z,5.40
2019-01-14T05:47:24.938Z,5.40
2019-01-14T05:49:54.800Z,5.40
2019-01-14T05:52:24.538Z,5.40
2019-01-14T05:54:54.311Z,5.30
2019-01-14T05:57:24.037Z,5.30
2019-01-14T05:59:54.159Z,5.30
2019-01-14T06:02:24.043Z,5.30
2019-01-14T06:04:53.799Z,5.30
2019-01-14T06:07:23.635Z,5.40
2019-01-14T06:09:53.333Z,5.40
2019-01-14T06:12:23.049Z,5.30
2019-01-14T06:14:53.091Z,5.40
2019-01-14T06:17:22.875Z,5.50
2019-01-14T06:19:53.304Z,5.40
2019-01-14T06:22:23.351Z,5.40
2019-01-14T06:24:53.277Z,5.20
2019-01-14T06:27:23.150Z,5.30
2019-01-14T06:29:53.142Z,5.20
2019-01-14T06:32:22.987Z,5.20
2019-01-14T06:34:52.929Z,5.20
2019-01-14T06:37:24.898Z,5.20
2019-01-14T06:39:54.665Z,5.20
2019-01-14T06:42:24.490Z,5.20
2019-01-14T06:44:54.198Z,5.10
2019-01-14T06:47:23.981Z,5.20
2019-01-14T06:49:53.811Z,5.10
2019-01-14T06:52:23.581Z,5.20
2019-01-14T06:54:53.261Z,5.20
2019-01-14T06:57:22.966Z,5.10
2019-01-14T06:59:53.092Z,5.10
2019-01-14T07:02:22.946Z,5.10
2019-01-14T07:04:58.649Z,5.10
2019-01-14T07:07:28.467Z,5.00
2019-01-14T07:09:58.605Z,5.00
2019-01-14T07:12:28.543Z,4.90
2019-01-14T07:14:58.248Z,5.00
2019-01-14T07:17:28.028Z,5.00
2019-01-14T07:19:58.101Z,5.00
2019-01-14T07:22:27.885Z,4.90
2019-01-14T07:24:57.718Z,4.90
2019-01-14T07:27:27.474Z,4.90
2019-01-14T07:29:57.282Z,4.80
2019-01-14T07:32:27.030Z,4.80
2019-01-14T07:34:56.786Z,4.90
2019-01-14T07:37:26.706Z,4.70
2019-01-14T07:39:56.494Z,4.70
2019-01-14T07:42:26.330Z,4.70
2019-01-14T07:44:56.237Z,4.70
2019-01-14T07:47:26.206Z,4.70
2019-01-14T07:49:55.994Z,4.70
2019-01-14T07:52:26.130Z,4.70
2019-01-14T07:54:56.099Z,4.80
2019-01-14T07:57:25.774Z,4.80
2019-01-14T07:59:55.838Z,4.80
2019-01-14T08:02:25.781Z,4.80
2019-01-14T08:04:55.890Z,4.80
2019-01-14T08:07:25.574Z,4.80
2019-01-14T08:09:55.378Z,4.80
2019-01-14T08:12:25.296Z,4.80
2019-01-14T08:14:55.104Z,4.90
2019-01-14T08:17:24.857Z,4.90
2019-01-14T08:19:54.755Z,4.90
2019-01-14T08:22:24.746Z,4.90
2019-01-14T08:24:54.482Z,5.00
2019-01-14T08:27:24.322Z,5.00
2019-01-14T08:29:54.314Z,5.00
2019-01-14T08:32:24.082Z,5.00
2019-01-14T08:34:53.898Z,5.00
2019-01-14T08:37:23.926Z,5.10
2019-01-14T08:39:53.754Z,5.00
2019-01-14T08:42:23.731Z,5.00
2019-01-14T08:44:53.867Z,5.10
2019-01-14T08:47:23.568Z,5.10
2019-01-14T08:49:53.737Z,5.10
2019-01-14T08:52:24.181Z,5.20
2019-01-14T08:54:53.883Z,5.20
2019-01-14T08:57:23.765Z,5.10
2019-01-14T08:59:53.962Z,5.20
2019-01-14T09:02:24.165Z,5.20
2019-01-14T09:04:54.219Z,5.20
2019-01-14T09:07:24.275Z,5.20
2019-01-14T09:09:54.041Z,5.20
2019-01-14T09:12:23.809Z,5.20
2019-01-14T09:14:54.861Z,5.20
2019-01-14T09:17:24.560Z,5.20
2019-01-14T09:19:54.338Z,5.20
2019-01-14T09:22:24.301Z,5.20
2019-01-14T09:24:54.680Z,5.20
2019-01-14T09:27:24.370Z,5.20
2019-01-14T09:29:54.589Z,5.30
2019-01-14T09:32:24.630Z,5.20
2019-01-14T09:34:54.338Z,5.30
2019-01-14T09:37:24.138Z,5.30
2019-01-14T09:39:54.154Z,5.30
2019-01-14T09:42:27.835Z,5.30
2019-01-14T09:44:55.463Z,5.30
2019-01-14T09:47:25.479Z,5.30
2019-01-14T09:49:55.379Z,5.30
2019-01-14T09:52:25.174Z,5.30
2019-01-14T09:54:54.946Z,5.30
2019-01-14T09:57:24.650Z,5.30
2019-01-14T09:59:54.410Z,5.30
2019-01-14T10:02:24.194Z,5.40
2019-01-14T10:04:53.934Z,5.40
2019-01-14T10:07:23.633Z,5.40
2019-01-14T10:09:53.318Z,5.40
2019-01-14T10:12:23.393Z,5.50
2019-01-14T10:14:53.266Z,5.40
2019-01-14T10:17:26.667Z,5.40
2019-01-14T10:19:56.495Z,5.40
2019-01-14T10:22:26.265Z,5.40
2019-01-14T10:24:56.036Z,5.40
2019-01-14T10:27:26.099Z,5.40
2019-01-14T10:29:58.873Z,5.40
2019-01-14T10:32:29.049Z,5.30
2019-01-14T10:34:58.869Z,5.30
2019-01-14T10:37:28.752Z,5.30
2019-01-14T10:39:59.002Z,5.30
2019-01-14T10:42:28.733Z,5.30
2019-01-14T10:44:58.406Z,5.30
2019-01-14T10:47:28.510Z,5.30
2019-01-14T10:49:58.313Z,5.30
2019-01-14T10:52:28.447Z,5.30
2019-01-14T10:54:58.391Z,5.30
2019-01-14T10:57:28.223Z,5.30
2019-01-14T10:59:58.707Z,5.20
2019-01-14T11:02:28.679Z,5.30
2019-01-14T11:04:58.499Z,5.30
2019-01-14T11:07:28.222Z,5.30
2019-01-14T11:09:58.025Z,5.20
2019-01-14T11:12:27.935Z,5.10
2019-01-14T11:14:57.630Z,5.10
2019-01-14T11:17:27.708Z,5.20
2019-01-14T11:19:57.565Z,5.20
2019-01-14T11:22:27.438Z,5.20
2019-01-14T11:24:57.114Z,5.20
2019-01-14T11:27:26.810Z,5.20
2019-01-14T11:29:56.576Z,5.10
2019-01-14T11:32:26.686Z,5.10
2019-01-14T11:34:56.562Z,5.20
2019-01-14T11:37:26.749Z,5.20
2019-01-14T11:39:57.051Z,5.20
2019-01-14T11:42:27.314Z,5.20
2019-01-14T11:44:57.563Z,5.30
2019-01-14T11:47:27.254Z,5.30
2019-01-14T11:49:57.334Z,5.20
2019-01-14T11:52:27.259Z,5.10
2019-01-14T11:54:56.965Z,5.10
2019-01-14T11:57:27.228Z,5.20
2019-01-14T11:59:56.994Z,5.20
2019-01-14T12:02:26.770Z,5.10
2019-01-14T12:04:56.511Z,5.20
2019-01-14T12:07:26.527Z,5.20
2019-01-14T12:09:56.327Z,5.10
2019-01-14T12:12:26.368Z,5.10
2019-01-14T12:14:56.327Z,5.00
2019-01-14T12:17:26.059Z,5.00
2019-01-14T12:19:55.807Z,5.10
2019-01-14T12:22:25.558Z,5.10
2019-01-14T12:24:55.510Z,5.10
2019-01-14T12:27:25.514Z,5.10
2019-01-14T12:29:55.546Z,5.10
2019-01-14T12:32:25.825Z,5.00
2019-01-14T12:34:55.519Z,4.90
2019-01-14T12:37:25.230Z,5.00
2019-01-14T12:39:55.001Z,5.00
2019-01-14T12:42:25.045Z,5.00
2019-01-14T12:44:54.885Z,4.80
2019-01-14T12:47:24.881Z,4.80
2019-01-14T12:49:54.560Z,4.80
2019-01-14T12:52:24.294Z,4.80
2019-01-14T12:54:54.061Z,4.80
2019-01-14T12:57:24.336Z,4.70
2019-01-14T12:59:54.036Z,4.80
2019-01-14T13:02:23.798Z,4.80
2019-01-14T13:04:53.495Z,4.80
2019-01-14T13:07:23.165Z,4.90
2019-01-14T13:09:52.936Z,4.90
2019-01-14T13:12:22.937Z,5.00
2019-01-14T13:14:53.120Z,5.00
2019-01-14T13:17:22.870Z,5.00
2019-01-14T13:19:52.589Z,5.10
2019-01-14T13:22:22.675Z,5.20
2019-01-14T13:24:52.695Z,5.20
2019-01-14T13:27:22.445Z,5.30
2019-01-14T13:29:52.221Z,5.20
2019-01-14T13:32:21.987Z,5.20
2019-01-14T13:34:51.679Z,5.20
2019-01-14T13:37:21.586Z,5.30
2019-01-14T13:39:52.619Z,5.30
2019-01-14T13:42:22.552Z,5.20
2019-01-14T13:44:52.306Z,5.30
2019-01-14T13:47:22.122Z,5.20
2019-01-14T13:49:51.901Z,5.00
2019-01-14T13:52:21.571Z,5.00
2019-01-14T13:54:51.333Z,4.90
2019-01-14T13:57:21.086Z,4.90
2019-01-14T13:59:50.777Z,4.90
2019-01-14T14:02:20.516Z,4.90
2019-01-14T14:04:50.458Z,4.90
2019-01-14T14:07:20.206Z,4.80
2019-01-14T14:09:50.165Z,4.10
2019-01-14T14:12:20.335Z,3.50
2019-01-14T14:14:50.270Z,3.30
2019-01-14T14:17:20.278Z,3.10
2019-01-14T14:19:49.971Z,3.10
2019-01-14T14:22:19.955Z,3.20
2019-01-14T14:24:49.661Z,3.00
2019-01-14T14:27:19.408Z,2.90
2019-01-14T14:29:49.178Z,3.00
2019-01-14T14:32:18.927Z,3.10
2019-01-14T14:34:48.659Z,3.00
2019-01-14T14:37:18.491Z,3.20
2019-01-14T14:39:48.734Z,3.20
2019-01-14T14:42:18.572Z,3.10
2019-01-14T14:44:48.527Z,3.00
2019-01-14T14:47:18.285Z,2.90
2019-01-14T14:49:47.962Z,2.90
2019-01-14T14:52:17.854Z,2.90
2019-01-14T14:54:47.659Z,3.00
2019-01-14T14:57:17.323Z,3.00
2019-01-14T14:59:47.028Z,2.90
2019-01-14T15:02:16.699Z,3.00
2019-01-14T15:04:46.729Z,2.90
2019-01-14T15:07:16.722Z,2.90
2019-01-14T15:09:46.431Z,2.90
2019-01-14T15:12:16.334Z,2.90
2019-01-14T15:14:46.097Z,2.90
2019-01-14T15:17:16.111Z,2.90
2019-01-14T15:19:46.074Z,2.90
2019-01-14T15:22:16.022Z,2.80
2019-01-14T15:24:45.973Z,2.70
2019-01-14T15:27:15.827Z,2.70
2019-01-14T15:29:45.537Z,2.80
2019-01-14T15:32:15.551Z,2.80
2019-01-14T15:34:45.282Z,2.80
2019-01-14T15:37:15.289Z,2.80
2019-01-14T15:39:45.062Z,2.90
2019-01-14T15:42:14.827Z,2.90
2019-01-14T15:44:44.549Z,2.90
2019-01-14T15:47:14.409Z,2.90
2019-01-14T15:49:44.338Z,2.90
2019-01-14T15:52:14.674Z,2.90
2019-01-14T15:54:44.683Z,2.90
2019-01-14T16:00:56.700Z,3.00
2019-01-14T16:03:26.422Z,3.10
2019-01-14T16:05:56.224Z,3.20
2019-01-14T16:08:26.250Z,3.10
2019-01-14T16:10:56.127Z,3.10
2019-01-14T16:13:26.162Z,3.10
2019-01-14T16:15:55.965Z,3.10
2019-01-14T16:18:25.943Z,3.00
2019-01-14T16:20:58.951Z,3.10
2019-01-14T16:23:29.305Z,3.20
2019-01-14T16:25:59.626Z,3.30
2019-01-14T16:28:29.491Z,3.30
2019-01-14T16:30:59.324Z,3.20
2019-01-14T16:33:29.029Z,3.30
2019-01-14T16:35:59.114Z,3.40
2019-01-14T16:38:28.964Z,3.40
2019-01-14T16:40:58.786Z,3.30
2019-01-14T16:43:28.502Z,3.30
2019-01-14T16:45:58.284Z,3.30
2019-01-14T16:48:28.397Z,3.20
2019-01-14T16:50:58.400Z,3.20
2019-01-14T16:53:28.879Z,3.30
2019-01-14T16:55:58.954Z,3.40
2019-01-14T16:58:29.043Z,3.40
2019-01-14T17:05:02.411Z,3.50
2019-01-14T17:07:32.194Z,3.50
2019-01-14T17:10:02.941Z,3.50
2019-01-14T17:12:32.946Z,3.40
2019-01-14T17:15:02.756Z,3.40
2019-01-14T17:17:33.307Z,3.50
2019-01-14T17:20:05.015Z,3.60
2019-01-14T17:22:34.752Z,3.60
2019-01-14T17:25:06.105Z,3.60
2019-01-14T17:27:36.134Z,3.50
2019-01-14T17:30:07.890Z,3.50
2019-01-14T17:32:37.949Z,3.40
2019-01-14T17:35:08.136Z,3.40
2019-01-14T17:37:38.577Z,3.50
2019-01-14T17:40:11.450Z,3.60
2019-01-14T17:42:41.645Z,3.50
2019-01-14T17:45:11.901Z,3.50
2019-01-14T17:47:41.794Z,3.50
2019-01-14T17:50:14.038Z,3.50
2019-01-14T17:52:43.959Z,3.60
2019-01-14T17:55:14.013Z,3.60
2019-01-14T17:57:44.404Z,3.50
2019-01-14T18:00:17.598Z,3.40
2019-01-14T18:02:47.618Z,3.40
2019-01-14T18:05:17.772Z,3.40
2019-01-14T18:07:47.710Z,3.30
2019-01-14T18:10:18.957Z,3.30
2019-01-14T18:12:48.921Z,3.30
2019-01-14T18:15:18.853Z,3.20
2019-01-14T18:17:48.744Z,3.30
2019-01-14T18:20:20.288Z,3.30
2019-01-14T18:22:50.125Z,3.30
2019-01-14T18:25:20.129Z,3.40
2019-01-14T18:27:50.200Z,3.50
2019-01-14T18:30:21.609Z,3.60
2019-01-14T18:32:51.494Z,3.60
2019-01-14T18:35:21.327Z,3.60
2019-01-14T18:37:51.189Z,3.60
2019-01-14T18:40:21.134Z,3.60
2019-01-14T18:42:51.214Z,3.60
2019-01-14T18:45:25.586Z,3.60
2019-01-14T18:47:54.270Z,3.60
2019-01-14T18:50:24.481Z,3.70
2019-01-14T18:53:03.954Z,3.60
2019-01-14T18:55:34.074Z,3.60
2019-01-14T18:58:03.875Z,3.50
2019-01-14T19:00:34.230Z,3.40
2019-01-14T19:03:04.551Z,3.40
2019-01-14T19:05:34.484Z,3.40
2019-01-14T19:08:04.654Z,3.40
2019-01-14T19:10:36.626Z,3.50
2019-01-14T19:13:06.426Z,3.50
2019-01-14T19:15:36.249Z,3.60
2019-01-14T19:18:06.089Z,3.60
2019-01-14T19:20:36.104Z,3.70
2019-01-14T19:23:06.003Z,3.70
2019-01-14T19:25:35.914Z,3.70
2019-01-14T19:28:06.151Z,3.80
2019-01-14T19:30:35.965Z,3.70
2019-01-14T19:33:06.114Z,3.70
2019-01-14T19:35:35.890Z,3.60
2019-01-14T19:38:06.578Z,3.50
2019-01-14T19:40:36.523Z,3.50
2019-01-14T19:43:06.403Z,3.50
2019-01-14T19:45:38.506Z,3.60
2019-01-14T19:48:08.982Z,3.60
2019-01-14T19:50:40.898Z,3.50
2019-01-14T19:53:10.801Z,3.60
2019-01-14T19:55:40.690Z,3.60
2019-01-14T19:58:10.576Z,3.60
2019-01-14T20:00:40.954Z,3.60
2019-01-14T20:03:10.753Z,3.60
2019-01-14T20:05:40.940Z,3.40
2019-01-14T20:08:11.211Z,3.40
2019-01-14T20:10:41.526Z,3.30
2019-01-14T20:13:11.463Z,3.20
2019-01-14T20:15:41.558Z,3.20
2019-01-14T20:18:11.401Z,3.20
2019-01-14T20:20:41.279Z,3.20
2019-01-14T20:23:11.409Z,3.30
2019-01-14T20:25:41.971Z,3.30
2019-01-14T20:28:11.785Z,3.30
2019-01-14T20:30:41.759Z,3.30
2019-01-14T20:33:13.059Z,3.30
2019-01-14T20:35:42.757Z,3.40
2019-01-14T20:38:12.570Z,3.30
2019-01-14T20:40:42.414Z,3.30
2019-01-14T20:43:12.551Z,3.30
2019-01-14T20:45:44.225Z,3.30
2019-01-14T20:48:14.141Z,3.30
2019-01-14T20:50:44.229Z,3.30
2019-01-14T20:53:14.146Z,3.40
2019-01-14T20:55:43.961Z,3.20
2019-01-14T20:58:13.782Z,3.20
2019-01-14T21:00:43.717Z,3.20
2019-01-14T21:03:13.847Z,3.10
2019-01-14T21:05:43.658Z,3.10
2019-01-14T21:08:13.850Z,3.00
2019-01-14T21:10:43.664Z,3.00
2019-01-14T21:13:13.509Z,3.00
2019-01-14T21:15:43.381Z,3.00
2019-01-14T21:18:13.409Z,3.00
2019-01-14T21:20:43.384Z,3.10
2019-01-14T21:23:13.410Z,3.10
2019-01-14T21:25:43.270Z,3.20
2019-01-14T21:28:13.074Z,3.10
2019-01-14T21:30:44.295Z,3.10
2019-01-14T21:33:14.257Z,3.00
2019-01-14T21:35:44.301Z,3.00
2019-01-14T21:38:14.085Z,2.90
2019-01-14T21:40:44.054Z,2.90
2019-01-14T21:43:14.026Z,2.80
2019-01-14T21:45:43.817Z,2.90
2019-01-14T21:48:17.282Z,2.90
2019-01-14T21:50:45.198Z,3.00
2019-01-14T21:53:14.931Z,3.10
2019-01-14T21:55:44.959Z,3.10
2019-01-14T21:58:14.841Z,3.10
2019-01-14T22:00:44.605Z,3.00
2019-01-14T22:03:15.693Z,3.00
2019-01-14T22:05:45.463Z,3.00
2019-01-14T22:08:15.330Z,3.00
2019-01-14T22:10:45.250Z,2.90
2019-01-14T22:13:15.499Z,2.90
2019-01-14T22:15:45.668Z,2.80
2019-01-14T22:18:15.882Z,2.80
2019-01-14T22:20:46.006Z,2.80
2019-01-14T22:23:16.332Z,2.80
2019-01-14T22:25:48.249Z,2.70
2019-01-14T22:28:18.531Z,2.80
2019-01-14T22:30:48.787Z,2.80
2019-01-14T22:33:20.474Z,2.80
2019-01-14T22:35:50.450Z,2.90
2019-01-14T22:38:20.494Z,2.90
2019-01-14T22:40:50.411Z,2.80
2019-01-14T22:43:20.115Z,2.80
2019-01-14T22:48:56.419Z,2.90
2019-01-14T22:51:26.504Z,2.90
2019-01-14T22:53:57.680Z,2.80
2019-01-14T22:56:27.849Z,3.00
2019-01-14T22:58:57.968Z,3.00
2019-01-14T23:01:50.209Z,3.00
2019-01-14T23:04:20.469Z,2.80
2019-01-14T23:06:51.310Z,2.80
2019-01-14T23:09:21.316Z,2.80
2019-01-14T23:11:53.314Z,2.80
2019-01-14T23:14:23.346Z,2.70
2019-01-14T23:16:57.576Z,2.60
2019-01-14T23:19:27.327Z,2.70
2019-01-14T23:21:57.134Z,2.60
2019-01-14T23:24:26.852Z,2.60
2019-01-14T23:26:56.645Z,2.50
2019-01-14T23:29:26.675Z,2.50
2019-01-14T23:31:56.787Z,2.50
2019-01-14T23:34:26.834Z,2.30
2019-01-14T23:36:56.539Z,2.10
2019-01-14T23:39:26.534Z,2.10
2019-01-14T23:42:00.331Z,2.10
2019-01-14T23:44:28.128Z,2.10
2019-01-14T23:46:58.497Z,2.00
2019-01-14T23:49:28.347Z,2.00
2019-01-14T23:51:58.278Z,1.90
2019-01-14T23:54:28.322Z,1.90
2019-01-14T23:56:58.289Z,1.80
2019-01-14T23:59:28.134Z,1.80
